Time;durP1;ratioP1;P1;durP2;ratioP2;P2;SDS_P1;SDS_P2;PMS_P1;PMS_P2;Temp;Humidity;BMP_temperature;BMP_pressure;BME280_temperature;BME280_humidity;BME280_pressure;Samples;Min_cycle;Max_cycle;Signal;HPM_P1;HPM_P2
2021/04/13 00:01:14;;;;;;;;;12.67;8.00;;;;;6.14;80.36;99933.22;3618611;39;10043;-58
2021/04/13 00:03:52;;;;;;;;;16.00;10.00;;;;;6.20;79.70;99929.44;3625974;39;9792;-57
2021/04/13 00:06:30;;;;;;;;;12.00;12.00;;;;;6.20;79.57;99913.44;3618180;39;9879;-57
2021/04/13 00:09:31;;;;;;;;;16.33;12.67;;;;;6.06;80.46;99901.53;3623115;39;9932;-57
2021/04/13 00:12:14;;;;;;;;;15.00;10.00;;;;;6.11;80.24;99890.69;3620329;39;10019;-58
2021/04/13 00:14:50;;;;;;;;;15.67;12.67;;;;;5.90;81.30;99887.03;3628313;39;9810;-57
2021/04/13 00:17:23;;;;;;;;;15.00;12.00;;;;;5.91;80.51;99891.44;3628861;39;9883;-58
2021/04/13 00:19:57;;;;;;;;;12.67;10.67;;;;;6.01;80.67;99891.97;3611775;39;10214;-58
2021/04/13 00:22:24;;;;;;;;;15.00;12.00;;;;;6.01;80.01;99891.97;3614026;39;9878;-58
2021/04/13 00:24:52;;;;;;;;;15.00;10.33;;;;;5.82;80.91;99887.34;3608997;39;9875;-58
2021/04/13 00:27:23;;;;;;;;;10.67;9.33;;;;;5.90;80.68;99898.56;3612893;39;10522;-57
2021/04/13 00:29:51;;;;;;;;;15.00;11.67;;;;;5.98;81.05;99892.06;3618246;39;9860;-58
2021/04/13 00:32:30;;;;;;;;;10.00;9.67;;;;;5.91;80.43;99897.63;3621662;39;9890;-58
2021/04/13 00:35:16;;;;;;;;;15.33;10.00;;;;;6.09;80.27;99890.72;3616228;39;10001;-57
2021/04/13 00:37:43;;;;;;;;;9.00;9.00;;;;;5.82;80.35;99889.09;3623354;39;9968;-58
2021/04/13 00:40:27;;;;;;;;;16.00;12.67;;;;;5.55;82.27;99872.41;3621446;39;10072;-57
2021/04/13 00:43:00;;;;;;;;;11.33;10.00;;;;;5.94;80.07;99862.88;3617518;39;9851;-59
2021/04/13 00:45:39;;;;;;;;;11.67;11.00;;;;;5.93;79.14;99863.81;3618413;39;9808;-58
2021/04/13 00:48:08;;;;;;;;;16.00;9.00;;;;;5.88;80.03;99867.56;3607644;39;9998;-58
2021/04/13 00:50:47;;;;;;;;;8.67;8.67;;;;;5.79;79.29;99870.56;3617681;39;10111;-57
2021/04/13 00:53:22;;;;;;;;;13.00;12.33;;;;;5.97;79.41;99875.22;3620264;39;10178;-57
2021/04/13 00:55:55;;;;;;;;;10.00;8.67;;;;;5.96;79.93;99868.16;3618897;39;9878;-58
2021/04/13 00:58:31;;;;;;;;;16.00;13.00;;;;;6.00;78.73;99863.56;3625135;39;10507;-57
2021/04/13 01:02:08;;;;;;;;;11.00;11.00;;;;;5.91;80.42;99867.44;3598155;39;10061;-58
2021/04/13 01:04:59;;;;;;;;;10.00;9.00;;;;;5.65;81.43;99865.78;3567017;40;10623;-59
2021/04/13 01:07:36;;;;;;;;;12.33;10.33;;;;;5.73;80.65;99861.03;3617703;39;10544;-58
2021/04/13 01:10:10;;;;;;;;;8.33;6.67;;;;;5.66;81.02;99859.53;3606026;39;9972;-58
2021/04/13 01:12:44;;;;;;;;;11.33;11.00;;;;;5.77;79.43;99861.81;3599558;39;10105;-58
2021/04/13 01:15:16;;;;;;;;;11.67;11.33;;;;;5.49;80.45;99858.38;3605032;39;10141;-58
2021/04/13 01:17:45;;;;;;;;;13.00;9.00;;;;;5.63;80.42;99854.31;3605296;39;9941;-57
2021/04/13 01:20:38;;;;;;;;;11.67;9.00;;;;;5.55;81.58;99848.44;3615393;39;10117;-58
2021/04/13 01:23:11;;;;;;;;;11.67;10.33;;;;;5.60;81.39;99846.44;3608411;39;10266;-57
2021/04/13 01:25:43;;;;;;;;;14.33;11.67;;;;;5.48;81.73;99867.31;3607049;39;10075;-57
2021/04/13 01:28:19;;;;;;;;;21.33;8.33;;;;;5.58;80.41;99866.94;3608658;39;10135;-57
2021/04/13 01:30:51;;;;;;;;;10.00;6.67;;;;;5.86;80.82;99862.28;3614164;39;10208;-58
2021/04/13 01:33:35;;;;;;;;;16.67;12.33;;;;;5.68;81.33;99857.69;3597428;39;10625;-58
2021/04/13 01:36:41;;;;;;;;;8.33;8.33;;;;;5.37;82.50;99853.53;3607761;39;10019;-58
2021/04/13 01:39:12;;;;;;;;;9.00;7.33;;;;;5.76;80.52;99847.59;3607160;39;10086;-58
2021/04/13 01:41:59;;;;;;;;;9.00;8.33;;;;;5.88;79.79;99852.44;3598156;39;10779;-58
2021/04/13 01:45:08;;;;;;;;;11.00;11.00;;;;;5.79;80.48;99850.13;3596414;39;10074;-57
2021/04/13 01:47:36;;;;;;;;;13.00;11.67;;;;;5.45;81.08;99840.81;3603006;39;10850;-58
2021/04/13 01:50:13;;;;;;;;;12.00;9.00;;;;;5.26;82.74;99826.44;3606220;39;10062;-58
2021/04/13 01:52:48;;;;;;;;;10.33;10.33;;;;;5.25;81.93;99824.72;3598754;39;10064;-57
2021/04/13 01:55:37;;;;;;;;;14.33;10.33;;;;;5.20;82.85;99821.34;3596358;40;10048;-58
2021/04/13 01:58:47;;;;;;;;;13.33;11.00;;;;;5.34;82.01;99820.81;3598431;39;10020;-58
2021/04/13 02:01:31;;;;;;;;;15.67;11.00;;;;;5.34;82.33;99831.47;3589651;40;10138;-57
2021/04/13 02:04:24;;;;;;;;;18.33;10.33;;;;;5.46;82.22;99831.88;3596380;39;10151;-57
2021/04/13 02:10:29;;;;;;;;;15.33;10.33;;;;;5.57;83.32;99849.25;3592933;39;10015;-58
2021/04/13 02:13:07;;;;;;;;;10.33;9.33;;;;;5.79;81.38;99847.47;3601282;39;10190;-57
2021/04/13 02:16:23;;;;;;;;;13.33;9.00;;;;;5.68;82.47;99855.00;3599191;39;10086;-57
2021/04/13 02:18:53;;;;;;;;;13.00;9.67;;;;;5.72;82.58;99857.50;3583109;40;10160;-58
2021/04/13 02:21:42;;;;;;;;;15.00;12.00;;;;;5.88;82.21;99864.91;3583365;40;10104;-58
2021/04/13 02:24:17;;;;;;;;;14.33;13.00;;;;;5.82;81.74;99855.34;3598850;39;10136;-58
2021/04/13 02:26:52;;;;;;;;;13.00;11.33;;;;;5.88;81.66;99852.44;3596606;40;10191;-57
2021/04/13 02:29:27;;;;;;;;;12.00;10.33;;;;;5.73;81.06;99845.03;3596236;40;10144;-58
2021/04/13 02:32:04;;;;;;;;;13.33;12.00;;;;;5.40;83.38;99858.75;3592634;39;10051;-58
2021/04/13 02:34:45;;;;;;;;;16.33;12.00;;;;;5.50;82.94;99860.13;3597911;39;10195;-58
2021/04/13 02:37:20;;;;;;;;;187.00;173.50;;;;;5.65;82.77;99853.34;3594533;40;9881;-57
2021/04/13 02:39:47;;;;;;;;;59.75;49.25;;;;;5.60;82.04;99863.28;3595532;39;9285;-58
2021/04/13 02:42:20;;;;;;;;;31.00;25.75;;;;;5.91;81.66;99854.97;3596182;39;10946;-58
2021/04/13 02:45:10;;;;;;;;;15.67;13.00;;;;;5.65;82.12;99852.47;3599399;39;10125;-57
2021/04/13 02:47:48;;;;;;;;;22.33;14.67;;;;;5.62;81.37;99847.28;3596965;39;10246;-57
2021/04/13 02:50:21;;;;;;;;;15.00;12.00;;;;;5.45;82.50;99839.91;3595974;39;10515;-57
2021/04/13 02:52:51;;;;;;;;;10.33;8.33;;;;;5.46;82.35;99844.31;3598116;39;10041;-58
2021/04/13 02:55:29;;;;;;;;;11.67;9.00;;;;;5.61;80.98;99845.50;3597188;39;10268;-58
2021/04/13 02:58:02;;;;;;;;;11.33;9.67;;;;;5.69;81.47;99848.78;3606346;39;9999;-58
2021/04/13 03:00:36;;;;;;;;;9.67;9.00;;;;;5.64;82.10;99840.97;3605419;39;10612;-58
2021/04/13 03:03:13;;;;;;;;;12.00;9.00;;;;;5.60;80.91;99846.44;3612936;39;10058;-58
2021/04/13 03:05:41;;;;;;;;;13.00;11.00;;;;;5.44;82.36;99833.72;3618301;39;9990;-58
2021/04/13 03:08:14;;;;;;;;;7.00;6.67;;;;;5.30;83.47;99836.06;3618034;39;10017;-58
2021/04/13 03:10:47;;;;;;;;;9.00;9.00;;;;;5.34;83.62;99827.00;3609688;39;10021;-58
2021/04/13 03:13:24;;;;;;;;;12.33;11.00;;;;;5.48;83.81;99838.03;3614087;39;9996;-58
2021/04/13 03:15:57;;;;;;;;;11.33;8.33;;;;;5.41;83.44;99825.84;3610211;39;10073;-58
2021/04/13 03:18:40;;;;;;;;;11.00;8.67;;;;;5.40;83.44;99821.47;3608366;39;10098;-58
2021/04/13 03:21:25;;;;;;;;;12.67;12.67;;;;;5.42;83.66;99814.25;3608001;39;10194;-58
2021/04/13 03:23:57;;;;;;;;;9.67;9.67;;;;;5.41;83.35;99817.88;3615617;39;10030;-58
2021/04/13 03:26:52;;;;;;;;;8.00;8.00;;;;;5.38;83.17;99818.00;3617060;39;10201;-58
2021/04/13 03:29:28;;;;;;;;;9.00;6.67;;;;;5.23;84.47;99818.56;3608668;39;10152;-58
2021/04/13 03:31:59;;;;;;;;;8.00;8.00;;;;;5.38;83.79;99810.00;3607898;39;10050;-58
2021/04/13 03:34:26;;;;;;;;;11.00;8.67;;;;;5.37;84.41;99805.63;3608481;39;10117;-57
2021/04/13 03:36:57;;;;;;;;;10.33;9.00;;;;;5.28;84.16;99806.81;3608458;39;10048;-58
2021/04/13 03:39:38;;;;;;;;;9.00;9.00;;;;;5.38;84.09;99807.34;3618316;39;10249;-58
2021/04/13 03:42:09;;;;;;;;;9.00;8.33;;;;;5.32;82.49;99815.56;3618941;39;10091;-58
2021/04/13 03:44:39;;;;;;;;;8.00;5.00;;;;;5.21;83.44;99820.41;3599924;39;10056;-58
2021/04/13 03:47:18;;;;;;;;;10.33;8.33;;;;;5.38;83.21;99820.66;3597697;40;10252;-58
2021/04/13 03:49:46;;;;;;;;;8.00;8.00;;;;;5.33;82.50;99817.28;3610458;39;9953;-58
2021/04/13 03:52:33;;;;;;;;;8.00;6.33;;;;;5.32;82.94;99812.91;3618090;39;10658;-59
2021/04/13 03:55:33;;;;;;;;;8.67;8.67;;;;;5.23;83.82;99810.59;3616702;39;10125;-58
2021/04/13 03:58:19;;;;;;;;;11.00;9.67;;;;;5.29;82.63;99818.31;3600984;39;10011;-58
2021/04/13 04:00:46;;;;;;;;;11.33;8.00;;;;;5.32;83.55;99820.91;3607970;39;10715;-58
2021/04/13 04:03:13;;;;;;;;;12.00;8.00;;;;;5.41;82.76;99823.19;3605931;39;10584;-59
2021/04/13 04:05:56;;;;;;;;;5.00;5.00;;;;;5.37;82.32;99826.91;3606354;39;10314;-58
2021/04/13 04:08:45;;;;;;;;;8.67;6.67;;;;;5.19;82.89;99832.94;3612845;39;10141;-58
2021/04/13 04:11:12;;;;;;;;;9.00;8.00;;;;;5.56;81.25;99826.22;3618342;39;10117;-58
2021/04/13 04:13:48;;;;;;;;;9.00;7.33;;;;;5.12;82.67;99832.28;3619600;39;10309;-59
2021/04/13 04:16:33;;;;;;;;;8.00;8.00;;;;;5.04;83.24;99827.22;3607358;39;10658;-59
2021/04/13 04:19:23;;;;;;;;;11.00;9.00;;;;;5.13;82.88;99834.00;3607879;39;10175;-58
2021/04/13 04:22:06;;;;;;;;;8.00;8.00;;;;;5.61;80.99;99825.09;3607237;39;10660;-58
2021/04/13 04:24:39;;;;;;;;;12.33;9.00;;;;;5.13;82.77;99830.47;3610898;39;10055;-58
2021/04/13 04:27:26;;;;;;;;;17.33;11.67;;;;;5.37;82.65;99832.25;3607169;39;10249;-58
2021/04/13 04:30:28;;;;;;;;;21.67;16.67;;;;;5.59;81.15;99831.41;3605120;39;10625;-58
2021/04/13 04:32:57;;;;;;;;;11.00;11.00;;;;;5.10;83.84;99827.94;3605971;39;10020;-58
2021/04/13 04:35:43;;;;;;;;;13.33;8.67;;;;;5.22;82.76;99825.69;3596871;40;10591;-58
2021/04/13 04:38:30;;;;;;;;;14.00;11.67;;;;;5.27;82.77;99822.88;3598382;39;10314;-59
2021/04/13 04:41:08;;;;;;;;;11.67;11.67;;;;;5.42;81.90;99822.25;3616250;39;10084;-58
2021/04/13 04:43:58;;;;;;;;;6.67;5.00;;;;;5.33;81.24;99827.94;3611732;39;9971;-58
2021/04/13 04:46:36;;;;;;;;;9.00;7.33;;;;;5.18;81.84;99825.84;3608317;39;10601;-59
2021/04/13 04:49:17;;;;;;;;;12.00;9.67;;;;;5.28;81.78;99820.13;3608674;39;9979;-58
2021/04/13 04:51:50;;;;;;;;;8.67;7.67;;;;;5.10;82.70;99830.59;3618056;39;9988;-58
2021/04/13 04:54:17;;;;;;;;;12.00;7.00;;;;;5.38;81.65;99810.00;3617504;39;10317;-58
2021/04/13 04:56:44;;;;;;;;;11.00;11.00;;;;;5.46;82.05;99821.22;3617815;39;10110;-58
2021/04/13 04:59:11;;;;;;;;;13.00;8.00;;;;;5.53;80.55;99818.31;3620046;39;9816;-58
2021/04/13 05:01:38;;;;;;;;;10.33;8.33;;;;;5.72;79.82;99803.38;3628118;39;10114;-58
2021/04/13 05:04:06;;;;;;;;;11.33;11.00;;;;;5.51;80.66;99799.75;3619015;39;9823;-59
2021/04/13 05:06:33;;;;;;;;;12.33;11.33;;;;;5.44;81.39;99795.59;3628126;39;9941;-58
2021/04/13 05:09:00;;;;;;;;;8.67;8.33;;;;;5.74;80.24;99790.88;3627294;39;9874;-58
2021/04/13 05:11:28;;;;;;;;;13.67;10.33;;;;;5.81;80.78;99792.31;3618330;39;10072;-58
2021/04/13 05:13:55;;;;;;;;;11.67;11.00;;;;;5.86;80.09;99790.34;3608155;39;10546;-59
2021/04/13 05:16:23;;;;;;;;;9.00;9.00;;;;;6.20;79.96;99790.78;3618273;39;9942;-58
2021/04/13 05:18:50;;;;;;;;;14.00;13.00;;;;;6.06;80.34;99786.03;3626157;39;9858;-58
2021/04/13 05:21:19;;;;;;;;;16.00;10.33;;;;;6.00;79.33;99788.94;3628065;39;9825;-58
2021/04/13 05:23:46;;;;;;;;;15.33;13.00;;;;;5.98;81.08;99785.47;3628330;39;9972;-58
2021/04/13 05:26:13;;;;;;;;;11.33;11.33;;;;;6.01;79.96;99790.69;3628264;39;9814;-58
2021/04/13 05:28:40;;;;;;;;;14.33;12.00;;;;;5.89;81.17;99779.56;3628311;39;9800;-58
2021/04/13 05:31:07;;;;;;;;;16.33;13.67;;;;;6.17;80.18;99781.13;3618023;39;9833;-58
2021/04/13 05:33:34;;;;;;;;;12.33;12.00;;;;;6.13;79.62;99791.06;3624929;39;10656;-58
2021/04/13 05:36:03;;;;;;;;;15.00;11.33;;;;;6.15;79.33;99788.31;3628606;39;9751;-58
2021/04/13 05:38:40;;;;;;;;;10.67;9.33;;;;;6.19;80.15;99795.25;3617861;39;9855;-58
2021/04/13 05:41:12;;;;;;;;;15.33;12.00;;;;;6.14;80.79;99795.44;3612481;39;9792;-58
2021/04/13 05:43:39;;;;;;;;;16.67;13.00;;;;;6.05;81.24;99786.97;3618539;39;9950;-58
2021/04/13 05:46:08;;;;;;;;;20.33;13.00;;;;;6.28;80.91;99786.88;3628112;39;9963;-58
2021/04/13 05:48:35;;;;;;;;;17.67;12.33;;;;;6.31;81.25;99783.19;3628138;39;9961;-58
2021/04/13 05:51:02;;;;;;;;;16.00;14.33;;;;;6.12;82.31;99783.97;3619235;39;9979;-58
2021/04/13 05:53:28;;;;;;;;;14.00;12.00;;;;;6.26;82.56;99778.06;3618559;39;9974;-58
2021/04/13 05:55:56;;;;;;;;;22.33;15.33;;;;;6.20;81.04;99782.78;3624324;39;9905;-58
2021/04/13 05:58:43;;;;;;;;;17.00;14.33;;;;;6.44;82.54;99778.22;3618244;39;10586;-58
2021/04/13 06:01:10;;;;;;;;;8.33;4.33;;;;;6.44;82.34;99775.53;3621647;39;10009;-58
2021/04/13 06:03:38;;;;;;;;;15.33;13.00;;;;;6.49;81.42;99771.75;3613963;39;9854;-58
2021/04/13 06:06:05;;;;;;;;;13.67;13.00;;;;;6.66;82.13;99763.03;3623163;39;9765;-58
2021/04/13 06:08:32;;;;;;;;;20.00;15.00;;;;;6.42;81.31;99761.41;3627501;39;10104;-58
2021/04/13 06:10:59;;;;;;;;;14.67;14.00;;;;;6.65;80.74;99766.59;3628364;39;9867;-58
2021/04/13 06:13:27;;;;;;;;;26.00;20.67;;;;;6.57;81.87;99772.28;3610846;39;10163;-58
2021/04/13 06:15:56;;;;;;;;;23.00;20.00;;;;;6.72;81.50;99773.41;3618870;39;10013;-58
2021/04/13 06:18:25;;;;;;;;;22.00;15.33;;;;;6.93;80.82;99760.91;3616889;39;10513;-58
2021/04/13 06:20:53;;;;;;;;;64.00;44.00;;;;;6.75;81.02;99757.25;3617286;39;10800;-58
2021/04/13 06:23:24;;;;;;;;;21.33;16.33;;;;;6.75;81.38;99765.25;3618279;39;9920;-58
2021/04/13 06:25:51;;;;;;;;;23.33;16.33;;;;;6.74;80.92;99766.22;3617177;39;9816;-59
2021/04/13 06:28:18;;;;;;;;;14.33;14.33;;;;;7.13;81.00;99762.63;3627833;39;9983;-59
2021/04/13 06:30:45;;;;;;;;;11.33;11.00;;;;;6.99;79.99;99755.28;3622200;39;9730;-58
2021/04/13 06:33:13;;;;;;;;;16.33;12.67;;;;;7.17;80.48;99758.03;3617649;39;10082;-58
2021/04/13 06:35:42;;;;;;;;;16.33;13.67;;;;;7.50;79.79;99760.91;3617761;39;9850;-58
2021/04/13 06:38:22;;;;;;;;;13.00;10.00;;;;;7.33;78.77;99761.72;3616413;39;9741;-59
2021/04/13 06:41:14;;;;;;;;;14.00;12.33;;;;;7.32;79.96;99772.47;3617115;39;9814;-59
2021/04/13 06:43:58;;;;;;;;;17.00;13.00;;;;;7.13;79.38;99770.66;3616303;39;9766;-58
2021/04/13 06:46:39;;;;;;;;;10.67;10.00;;;;;7.17;79.25;99769.59;3607935;39;9886;-58
2021/04/13 06:50:04;;;;;;;;;15.33;11.67;;;;;7.26;79.72;99773.63;3606585;39;9755;-58
2021/04/13 06:52:54;;;;;;;;;12.33;12.33;;;;;7.41;79.59;99772.91;3606636;39;9777;-58
2021/04/13 06:56:08;;;;;;;;;14.00;9.33;;;;;7.26;79.91;99774.47;3617483;39;9813;-58
2021/04/13 06:59:44;;;;;;;;;14.67;10.00;;;;;7.03;80.14;99785.38;3611247;39;9818;-59
2021/04/13 07:02:23;;;;;;;;;11.67;10.33;;;;;7.22;79.95;99791.59;3608039;39;9691;-59
2021/04/13 07:04:59;;;;;;;;;14.67;14.00;;;;;7.31;80.18;99792.13;3607910;39;9975;-59
2021/04/13 07:07:56;;;;;;;;;11.67;11.33;;;;;7.35;79.21;99794.56;3611861;39;9703;-58
2021/04/13 07:10:44;;;;;;;;;11.33;6.00;;;;;7.25;80.25;99803.94;3627730;39;9676;-58
2021/04/13 07:13:58;;;;;;;;;15.33;11.33;;;;;7.26;80.47;99801.19;3624872;39;9803;-58
2021/04/13 07:16:55;;;;;;;;;17.00;11.67;;;;;7.39;82.17;99795.28;3617405;39;9727;-58
2021/04/13 07:19:49;;;;;;;;;13.33;13.33;;;;;7.44;79.65;99803.97;3617965;39;9740;-58
2021/04/13 07:23:04;;;;;;;;;25.33;21.67;;;;;7.34;80.27;99808.00;3613767;39;9852;-58
2021/04/13 07:25:46;;;;;;;;;23.00;21.67;;;;;7.63;80.29;99799.47;3600984;39;10012;-58
2021/04/13 07:28:28;;;;;;;;;18.33;14.33;;;;;7.70;79.67;99794.72;3616489;39;9855;-58
2021/04/13 07:31:05;;;;;;;;;19.00;15.00;;;;;7.50;79.59;99797.44;3610964;39;9873;-59
2021/04/13 07:33:34;;;;;;;;;18.67;17.00;;;;;7.48;80.20;99797.53;3618139;39;9793;-59
2021/04/13 07:36:13;;;;;;;;;18.00;15.67;;;;;7.66;80.27;99798.44;3627666;39;9641;-59
2021/04/13 07:38:47;;;;;;;;;13.00;12.33;;;;;7.79;79.66;99793.38;3618161;39;9746;-59
2021/04/13 07:41:36;;;;;;;;;14.67;13.00;;;;;7.32;78.63;99799.19;3618941;39;9808;-58
2021/04/13 07:44:34;;;;;;;;;17.00;17.00;;;;;7.43;79.72;99799.56;3618095;39;10088;-58
2021/04/13 07:47:50;;;;;;;;;11.00;10.00;;;;;7.51;79.19;99810.75;3605744;39;9743;-58
2021/04/13 07:50:35;;;;;;;;;10.33;9.00;;;;;7.64;78.97;99806.56;3618789;39;9665;-59
2021/04/13 07:53:46;;;;;;;;;13.33;9.00;;;;;7.51;79.26;99805.41;3622928;39;9750;-59
2021/04/13 07:57:00;;;;;;;;;9.33;5.67;;;;;7.19;79.92;99810.44;3601828;39;9687;-59
2021/04/13 07:59:45;;;;;;;;;14.00;13.00;;;;;7.45;78.87;99808.34;3577135;40;9985;-59
2021/04/13 08:02:12;;;;;;;;;14.67;13.33;;;;;7.31;79.22;99797.44;3585963;40;9870;-59
2021/04/13 08:04:48;;;;;;;;;12.00;10.00;;;;;7.46;80.47;99792.25;3605610;39;9720;-59
2021/04/13 08:07:26;;;;;;;;;14.33;10.00;;;;;7.47;80.34;99793.97;3624131;39;9879;-59
2021/04/13 08:10:14;;;;;;;;;18.00;15.67;;;;;7.40;81.46;99781.88;3619502;39;9763;-59
2021/04/13 08:12:56;;;;;;;;;15.33;14.00;;;;;7.55;80.25;99780.25;3610173;39;9933;-59
2021/04/13 08:15:46;;;;;;;;;17.00;14.00;;;;;7.57;80.61;99782.88;3618185;39;9829;-58
2021/04/13 08:18:29;;;;;;;;;14.00;10.33;;;;;7.38;81.48;99788.22;3613344;39;9644;-58
2021/04/13 08:21:21;;;;;;;;;14.67;11.67;;;;;7.33;81.18;99783.09;3619742;39;9765;-59
2021/04/13 08:23:51;;;;;;;;;15.00;11.33;;;;;7.51;81.72;99786.72;3626088;39;10190;-59
2021/04/13 08:26:39;;;;;;;;;21.00;17.33;;;;;7.60;81.44;99794.28;3612820;39;9714;-59
2021/04/13 08:29:24;;;;;;;;;19.67;15.00;;;;;7.62;81.89;99796.88;3618324;39;9834;-57
2021/04/13 08:35:15;;;;;;;;;20.33;14.00;;;;;7.40;81.83;99786.34;3604296;39;9844;-57
2021/04/13 08:38:20;;;;;;;;;15.33;14.00;;;;;7.53;83.02;99790.19;3624213;39;9694;-57
2021/04/13 08:41:22;;;;;;;;;24.33;18.33;;;;;7.58;82.82;99788.16;3620681;39;9822;-57
2021/04/13 08:44:23;;;;;;;;;17.00;14.00;;;;;7.65;81.21;99789.56;3615947;39;9860;-57
2021/04/13 08:47:22;;;;;;;;;18.00;14.00;;;;;7.53;81.95;99798.19;3605182;39;9839;-56
2021/04/13 08:50:00;;;;;;;;;13.33;13.33;;;;;7.40;82.94;99803.25;3617601;39;9712;-57
2021/04/13 08:52:45;;;;;;;;;15.00;11.00;;;;;7.67;81.63;99798.41;3606643;39;9687;-56
2021/04/13 08:55:24;;;;;;;;;20.33;19.00;;;;;7.76;82.27;99798.88;3607638;39;10006;-58
2021/04/13 08:58:06;;;;;;;;;14.67;13.00;;;;;7.64;82.12;99793.19;3598409;39;9705;-57
2021/04/13 09:00:48;;;;;;;;;17.00;14.67;;;;;7.78;80.59;99792.53;3616674;39;9863;-57
2021/04/13 09:03:21;;;;;;;;;21.33;16.33;;;;;7.63;81.46;99780.75;3618245;39;9851;-55
2021/04/13 09:06:12;;;;;;;;;46.33;31.33;;;;;7.65;81.15;99775.34;3617859;39;9992;-56
2021/04/13 09:08:57;;;;;;;;;46.00;30.67;;;;;7.91;81.58;99776.75;3619414;39;9852;-55
2021/04/13 09:11:50;;;;;;;;;20.67;15.33;;;;;7.96;81.17;99766.72;3613005;39;9771;-57
2021/04/13 09:14:40;;;;;;;;;18.00;16.33;;;;;8.05;81.87;99773.41;3605907;39;9701;-57
2021/04/13 09:17:52;;;;;;;;;22.67;17.33;;;;;7.75;81.95;99781.13;3618410;39;9659;-57
2021/04/13 09:20:30;;;;;;;;;13.00;13.00;;;;;7.65;81.88;99772.69;3603037;39;9743;-56
2021/04/13 09:23:09;;;;;;;;;21.00;14.00;;;;;7.86;82.06;99768.09;3618261;39;9664;-56
2021/04/13 09:25:51;;;;;;;;;15.67;9.00;;;;;7.61;81.82;99763.97;3609604;39;9761;-55
2021/04/13 09:28:21;;;;;;;;;15.33;11.00;;;;;7.56;82.52;99765.97;3617947;39;9998;-57
2021/04/13 09:31:12;;;;;;;;;17.00;14.67;;;;;7.43;83.08;99767.50;3617990;39;9804;-56
2021/04/13 09:33:45;;;;;;;;;13.00;11.33;;;;;7.52;82.82;99759.03;3584720;39;9735;-53
2021/04/13 09:36:35;;;;;;;;;19.00;14.67;;;;;7.73;83.93;99764.28;3607757;39;9749;-57
2021/04/13 09:39:49;;;;;;;;;13.00;9.33;;;;;7.72;82.77;99765.25;3600467;39;9981;-55
2021/04/13 09:43:13;;;;;;;;;19.00;14.00;;;;;7.65;82.37;99754.84;3616585;39;9706;-57
2021/04/13 09:46:30;;;;;;;;;18.33;17.00;;;;;7.74;84.20;99758.88;3627919;39;9715;-57
2021/04/13 09:49:37;;;;;;;;;15.00;15.00;;;;;7.67;83.13;99752.97;3628335;39;9660;-55
2021/04/13 09:52:47;;;;;;;;;16.67;12.33;;;;;7.83;82.74;99746.88;3619691;39;9682;-55
2021/04/13 09:56:02;;;;;;;;;20.67;17.00;;;;;7.56;84.43;99762.44;3620723;39;9750;-56
2021/04/13 09:59:15;;;;;;;;;14.00;14.00;;;;;7.68;83.27;99760.03;3618543;39;9647;-56
2021/04/13 10:02:17;;;;;;;;;17.33;9.33;;;;;7.65;83.00;99770.00;3606950;39;9776;-54
2021/04/13 10:05:05;;;;;;;;;43.00;30.33;;;;;7.66;83.82;99761.94;3620079;39;9862;-57
2021/04/13 10:07:48;;;;;;;;;30.33;23.67;;;;;7.86;85.34;99762.75;3608355;39;9850;-49
2021/04/13 10:10:43;;;;;;;;;27.67;21.00;;;;;7.48;83.95;99769.03;3617374;39;10151;-51
2021/04/13 10:13:41;;;;;;;;;15.67;15.00;;;;;7.66;83.32;99764.59;3615270;39;9775;-51
2021/04/13 10:16:53;;;;;;;;;21.33;14.00;;;;;7.60;83.79;99764.88;3617886;39;9618;-50
2021/04/13 10:20:00;;;;;;;;;18.00;15.33;;;;;7.66;84.72;99756.59;3622136;39;9838;-51
2021/04/13 10:22:49;;;;;;;;;14.33;13.33;;;;;7.59;84.96;99754.28;3621166;39;9693;-51
2021/04/13 10:25:27;;;;;;;;;25.33;17.67;;;;;7.80;83.67;99736.34;3618280;39;9699;-50
2021/04/13 10:28:21;;;;;;;;;17.00;12.33;;;;;7.82;84.94;99751.34;3617651;39;9838;-49
2021/04/13 10:31:07;;;;;;;;;14.33;13.00;;;;;7.65;85.02;99746.81;3617329;39;9716;-54
2021/04/13 10:34:03;;;;;;;;;16.33;14.33;;;;;7.61;85.32;99737.25;3617512;39;9651;-50
2021/04/13 10:37:07;;;;;;;;;30.67;22.00;;;;;7.84;82.82;99737.91;3608402;39;9778;-51
2021/04/13 10:39:48;;;;;;;;;22.00;14.00;;;;;7.77;84.00;99731.16;3617604;39;9678;-52
2021/04/13 10:42:27;;;;;;;;;17.67;14.33;;;;;7.55;85.07;99733.97;3617542;39;9685;-53
2021/04/13 10:45:20;;;;;;;;;25.67;21.67;;;;;7.68;84.58;99727.97;3617709;39;9830;-52
2021/04/13 10:48:32;;;;;;;;;22.00;15.00;;;;;7.75;84.37;99733.88;3608159;39;9745;-51
2021/04/13 10:51:36;;;;;;;;;29.00;21.00;;;;;7.68;84.08;99732.44;3617346;39;9953;-51
2021/04/13 10:55:24;;;;;;;;;9.67;9.00;;;;;7.53;85.02;99727.84;3617649;39;9735;-47
2021/04/13 10:58:21;;;;;;;;;16.67;14.00;;;;;7.77;83.81;99715.97;3597571;39;10021;-52
2021/04/13 11:00:53;;;;;;;;;18.00;15.00;;;;;7.69;84.24;99708.34;3595278;39;9763;-50
2021/04/13 11:03:59;;;;;;;;;15.00;15.00;;;;;7.61;84.54;99713.19;3616184;39;10213;-52
2021/04/13 11:06:50;;;;;;;;;24.67;19.00;;;;;7.85;83.17;99710.25;3617967;39;9940;-51
2021/04/13 11:09:40;;;;;;;;;23.33;20.67;;;;;7.67;84.12;99720.91;3620884;39;10003;-51
2021/04/13 11:12:37;;;;;;;;;19.00;15.67;;;;;7.61;83.93;99714.97;3621538;39;9866;-51
2021/04/13 11:16:01;;;;;;;;;14.00;13.33;;;;;7.75;83.23;99717.00;3620002;39;9750;-51
2021/04/13 11:19:19;;;;;;;;;24.00;18.33;;;;;7.65;83.41;99717.44;3584975;40;10028;-50
2021/04/13 11:22:14;;;;;;;;;27.33;19.33;;;;;7.51;85.00;99719.91;3576144;40;9942;-48
2021/04/13 11:25:26;;;;;;;;;17.00;16.33;;;;;7.66;84.05;99719.19;3625814;39;9735;-49
2021/04/13 11:28:11;;;;;;;;;23.33;18.00;;;;;7.67;84.25;99715.56;3627505;39;9853;-50
2021/04/13 11:31:19;;;;;;;;;17.33;15.00;;;;;7.48;84.35;99720.06;3619488;39;9784;-51
2021/04/13 11:34:35;;;;;;;;;21.00;13.00;;;;;7.34;83.76;99719.84;3609283;39;9660;-51
2021/04/13 11:37:28;;;;;;;;;19.00;14.00;;;;;7.35;85.11;99718.94;3620095;39;9873;-51
2021/04/13 11:40:35;;;;;;;;;18.00;11.67;;;;;7.55;84.19;99720.63;3612959;39;9864;-48
2021/04/13 11:43:02;;;;;;;;;16.00;13.00;;;;;7.44;83.24;99722.00;3618328;39;10704;-48
2021/04/13 11:46:08;;;;;;;;;24.67;17.00;;;;;7.43;84.68;99727.44;3609271;39;9714;-52
2021/04/13 11:48:44;;;;;;;;;15.00;15.00;;;;;7.41;84.12;99721.31;3611224;39;10232;-50
2021/04/13 11:51:19;;;;;;;;;19.67;14.00;;;;;7.33;84.49;99718.13;3628852;39;9752;-51
2021/04/13 11:53:50;;;;;;;;;11.67;11.67;;;;;7.36;84.14;99723.31;3628620;39;9847;-49
2021/04/13 11:56:24;;;;;;;;;14.00;13.33;;;;;7.32;85.23;99724.41;3623104;39;9698;-48
2021/04/13 11:59:17;;;;;;;;;13.00;13.00;;;;;7.56;84.02;99728.56;3627507;39;9805;-51
2021/04/13 12:01:56;;;;;;;;;26.00;22.00;;;;;7.48;83.89;99726.28;3618511;39;9704;-51
2021/04/13 12:04:45;;;;;;;;;17.00;12.33;;;;;7.34;84.22;99727.88;3620443;39;9735;-53
2021/04/13 12:07:13;;;;;;;;;17.00;15.67;;;;;7.28;84.36;99733.50;3628019;39;9770;-50
2021/04/13 12:09:58;;;;;;;;;18.67;17.00;;;;;7.00;85.63;99724.09;3618875;39;9731;-53
2021/04/13 12:12:31;;;;;;;;;19.00;16.00;;;;;7.26;84.61;99720.22;3620118;39;9893;-51
2021/04/13 12:15:06;;;;;;;;;24.33;19.67;;;;;7.18;84.85;99715.22;3618632;39;10025;-53
2021/04/13 12:17:47;;;;;;;;;22.00;14.00;;;;;7.42;83.86;99715.88;3618846;39;9681;-53
2021/04/13 12:20:27;;;;;;;;;17.00;14.00;;;;;7.44;84.38;99713.13;3618904;39;9799;-53
2021/04/13 12:22:58;;;;;;;;;24.67;15.67;;;;;7.40;83.80;99708.91;3624598;39;9793;-50
2021/04/13 12:25:43;;;;;;;;;30.00;23.00;;;;;7.44;84.36;99699.78;3618271;39;9929;-51
2021/04/13 12:28:35;;;;;;;;;25.33;21.33;;;;;7.37;84.71;99701.00;3619171;39;9850;-52
2021/04/13 12:31:05;;;;;;;;;19.67;18.67;;;;;7.33;85.37;99694.09;3605173;39;9892;-50
2021/04/13 12:33:33;;;;;;;;;23.33;18.00;;;;;7.24;85.16;99696.28;3614366;39;9888;-52
2021/04/13 12:36:10;;;;;;;;;19.67;17.00;;;;;7.43;84.71;99690.03;3620328;39;9830;-51
2021/04/13 12:38:43;;;;;;;;;21.00;17.00;;;;;7.28;84.74;99688.97;3607152;39;9894;-53
2021/04/13 12:41:31;;;;;;;;;20.33;16.33;;;;;7.34;85.06;99674.44;3617691;39;9862;-54
2021/04/13 12:44:10;;;;;;;;;25.67;18.00;;;;;7.17;85.48;99684.16;3618967;39;9996;-52
2021/04/13 12:46:40;;;;;;;;;22.67;18.33;;;;;7.30;86.52;99675.56;3618429;39;9791;-53
2021/04/13 12:49:13;;;;;;;;;27.00;20.33;;;;;7.38;85.25;99676.03;3617902;39;9773;-53
2021/04/13 12:52:02;;;;;;;;;23.33;18.00;;;;;7.20;85.69;99678.66;3628690;39;9799;-53
2021/04/13 12:54:46;;;;;;;;;20.00;17.00;;;;;7.26;86.47;99681.03;3623681;39;9827;-50